createdAt,value
2022-08-18T00:01:16.027Z,16.80
2022-08-18T00:03:56.795Z,15.30
2022-08-18T00:06:29.596Z,14.40
2022-08-18T00:08:59.847Z,14.60
2022-08-18T00:11:40.518Z,14.03
2022-08-18T00:14:21.215Z,14.07
2022-08-18T00:16:51.858Z,14.10
2022-08-18T00:19:20.219Z,13.57
2022-08-18T00:22:08.856Z,14.33
2022-08-18T00:24:47.795Z,13.90
2022-08-18T00:27:23.395Z,13.77
2022-08-18T00:29:54.838Z,13.10
2022-08-18T00:32:26.429Z,13.77
2022-08-18T00:34:55.440Z,12.63
2022-08-18T00:37:25.050Z,12.43
2022-08-18T00:39:54.186Z,12.90
2022-08-18T00:42:29.050Z,12.53
2022-08-18T00:45:03.499Z,12.63
2022-08-18T00:47:42.358Z,12.83
2022-08-18T00:50:15.918Z,13.47
2022-08-18T00:52:48.702Z,13.87
2022-08-18T00:55:19.366Z,13.27
2022-08-18T00:57:49.624Z,13.23
2022-08-18T01:00:19.530Z,13.23
2022-08-18T01:02:52.449Z,13.80
2022-08-18T01:05:25.968Z,15.33
2022-08-18T01:07:54.285Z,13.60
2022-08-18T01:10:24.779Z,14.17
2022-08-18T01:12:55.724Z,13.67
2022-08-18T01:15:30.241Z,13.13
2022-08-18T01:18:17.414Z,14.57
2022-08-18T01:21:16.348Z,13.70
2022-08-18T01:23:47.051Z,12.97
2022-08-18T01:26:16.850Z,14.07
2022-08-18T01:28:47.398Z,13.87
2022-08-18T01:31:33.057Z,14.83
2022-08-18T01:34:02.137Z,14.03
2022-08-18T01:36:30.480Z,14.40
2022-08-18T01:39:00.645Z,14.17
2022-08-18T01:41:30.764Z,14.00
2022-08-18T01:43:59.503Z,15.20
2022-08-18T01:46:28.487Z,14.47
2022-08-18T01:48:58.605Z,13.53
2022-08-18T01:51:38.276Z,13.53
2022-08-18T01:54:13.525Z,13.27
2022-08-18T01:56:43.221Z,13.70
2022-08-18T01:59:14.421Z,12.97
2022-08-18T02:01:48.712Z,12.87
2022-08-18T02:04:34.980Z,13.87
2022-08-18T02:07:07.043Z,12.93
2022-08-18T02:09:38.382Z,11.83
2022-08-18T02:12:07.977Z,12.93
2022-08-18T02:14:37.076Z,12.23
2022-08-18T02:17:08.357Z,12.40
2022-08-18T02:19:38.286Z,12.33
2022-08-18T02:22:07.952Z,13.20
2022-08-18T02:24:38.054Z,13.83
2022-08-18T02:27:06.764Z,13.03
2022-08-18T02:29:35.540Z,13.80
2022-08-18T02:32:03.828Z,14.33
2022-08-18T02:34:31.943Z,13.20
2022-08-18T02:37:00.991Z,13.17
2022-08-18T02:39:29.507Z,13.03
2022-08-18T02:41:58.963Z,13.00
2022-08-18T02:44:26.999Z,12.90
2022-08-18T02:46:55.915Z,11.40
2022-08-18T02:49:24.158Z,12.93
2022-08-18T02:51:52.862Z,12.90
2022-08-18T02:54:23.126Z,12.67
2022-08-18T02:56:52.199Z,12.90
2022-08-18T02:59:24.289Z,13.03
2022-08-18T03:01:57.286Z,13.53
2022-08-18T03:04:30.210Z,12.97
2022-08-18T03:07:01.514Z,13.63
2022-08-18T03:09:30.995Z,14.23
2022-08-18T03:11:59.797Z,15.47
2022-08-18T03:14:30.368Z,16.93
2022-08-18T03:16:58.700Z,18.50
2022-08-18T03:19:28.674Z,20.17
2022-08-18T03:22:02.530Z,19.87
2022-08-18T03:24:32.790Z,21.03
2022-08-18T03:27:05.862Z,20.17
2022-08-18T03:29:36.838Z,19.17
2022-08-18T03:32:08.601Z,20.10
2022-08-18T03:34:36.732Z,19.27
2022-08-18T03:37:05.578Z,20.77
2022-08-18T03:39:33.726Z,20.33
2022-08-18T03:42:02.339Z,20.60
2022-08-18T03:44:32.300Z,20.20
2022-08-18T03:47:03.823Z,20.63
2022-08-18T03:49:33.672Z,20.40
2022-08-18T03:52:02.538Z,20.80
2022-08-18T03:54:33.695Z,20.40
2022-08-18T03:57:02.289Z,20.73
2022-08-18T03:59:32.162Z,19.70
2022-08-18T04:02:05.926Z,21.47
2022-08-18T04:04:35.330Z,21.27
2022-08-18T04:07:09.306Z,21.37
2022-08-18T04:09:39.257Z,22.17
2022-08-18T04:12:16.279Z,23.00
2022-08-18T04:14:48.154Z,20.93
2022-08-18T04:17:20.348Z,21.63
2022-08-18T04:19:48.542Z,20.73
2022-08-18T04:22:17.384Z,20.97
2022-08-18T04:24:46.877Z,21.17
2022-08-18T04:27:14.976Z,21.07
2022-08-18T04:29:43.113Z,20.87
2022-08-18T04:32:11.209Z,20.17
2022-08-18T04:34:40.794Z,19.53
2022-08-18T04:37:10.935Z,18.97
2022-08-18T04:39:39.500Z,19.67
2022-08-18T04:42:07.853Z,17.73
2022-08-18T04:44:37.894Z,16.27
2022-08-18T04:47:07.707Z,17.33
2022-08-18T04:49:36.668Z,17.37
2022-08-18T04:52:38.853Z,16.93
2022-08-18T04:55:09.952Z,15.73
2022-08-18T04:57:38.503Z,18.23
2022-08-18T05:00:13.590Z,17.07
2022-08-18T05:02:42.490Z,16.90
2022-08-18T05:05:11.117Z,16.50
2022-08-18T05:07:46.647Z,16.00
2022-08-18T05:10:17.563Z,14.40
2022-08-18T05:12:48.349Z,15.70
2022-08-18T05:15:17.703Z,14.60
2022-08-18T05:17:46.944Z,15.13
2022-08-18T05:20:19.334Z,16.60
2022-08-18T05:22:49.055Z,16.27
2022-08-18T05:25:17.671Z,16.03
2022-08-18T05:27:45.958Z,15.57
2022-08-18T05:30:15.207Z,17.07
2022-08-18T05:32:49.049Z,18.43
2022-08-18T05:35:24.345Z,15.47
2022-08-18T05:38:05.042Z,15.80
2022-08-18T05:40:33.391Z,16.73
2022-08-18T05:43:02.562Z,15.93
2022-08-18T05:45:30.904Z,16.70
2022-08-18T05:47:59.953Z,16.33
2022-08-18T05:50:30.462Z,17.20
2022-08-18T05:53:05.561Z,16.67
2022-08-18T05:56:04.419Z,17.40
2022-08-18T05:58:36.584Z,18.47
2022-08-18T06:01:08.962Z,20.67
2022-08-18T06:03:45.481Z,19.17
2022-08-18T06:06:19.842Z,21.73
2022-08-18T06:08:54.976Z,22.23
2022-08-18T06:11:23.836Z,22.60
2022-08-18T06:13:59.646Z,21.77
2022-08-18T06:16:47.857Z,23.90
2022-08-18T06:19:40.172Z,23.03
2022-08-18T06:22:20.873Z,23.53
2022-08-18T06:25:00.843Z,23.03
2022-08-18T06:27:39.599Z,23.60
2022-08-18T06:30:14.476Z,24.23
2022-08-18T06:33:22.469Z,25.57
2022-08-18T06:35:53.066Z,25.20
2022-08-18T06:38:45.279Z,24.90
2022-08-18T06:41:42.124Z,23.80
2022-08-18T06:44:08.994Z,24.73
2022-08-18T06:46:46.842Z,23.00
2022-08-18T06:49:22.681Z,24.17
2022-08-18T06:51:50.734Z,22.00
2022-08-18T06:54:30.905Z,22.37
2022-08-18T06:57:00.396Z,21.77
2022-08-18T06:59:31.134Z,21.80
2022-08-18T07:02:02.071Z,21.33
2022-08-18T07:04:38.206Z,20.73
2022-08-18T07:07:21.710Z,19.50
2022-08-18T07:09:52.953Z,19.90
2022-08-18T07:12:29.074Z,19.33
2022-08-18T07:15:03.203Z,19.23
2022-08-18T07:17:42.705Z,19.20
2022-08-18T07:20:23.607Z,18.37
2022-08-18T07:23:00.288Z,18.43
2022-08-18T07:25:33.641Z,18.03
2022-08-18T07:28:03.306Z,18.50
2022-08-18T07:30:35.790Z,18.83
2022-08-18T07:33:13.079Z,18.67
2022-08-18T07:35:47.590Z,17.57
2022-08-18T07:38:41.507Z,17.33
2022-08-18T07:41:15.579Z,17.13
2022-08-18T07:44:02.614Z,16.20
2022-08-18T07:46:36.568Z,18.57
2022-08-18T07:49:06.386Z,17.00
2022-08-18T07:51:47.321Z,16.90
2022-08-18T07:54:48.338Z,16.43
2022-08-18T07:57:20.273Z,15.17
2022-08-18T07:59:59.029Z,15.70
2022-08-18T08:02:38.549Z,14.70
2022-08-18T08:05:15.848Z,14.50
2022-08-18T08:07:54.294Z,15.80
2022-08-18T08:10:37.520Z,14.70
2022-08-18T08:13:31.086Z,14.37
2022-08-18T08:16:13.835Z,14.03
2022-08-18T08:18:53.004Z,13.87
2022-08-18T08:21:24.047Z,12.97
2022-08-18T08:23:57.865Z,13.63
2022-08-18T08:26:37.571Z,13.00
2022-08-18T08:29:24.073Z,12.00
2022-08-18T08:32:02.615Z,12.27
2022-08-18T08:34:36.316Z,13.53
2022-08-18T08:37:07.672Z,12.20
2022-08-18T08:39:41.807Z,11.27
2022-08-18T08:42:30.950Z,10.30
2022-08-18T08:45:07.721Z,9.93
2022-08-18T08:47:46.105Z,9.87
2022-08-18T08:50:17.492Z,9.00
2022-08-18T08:52:50.136Z,8.97
2022-08-18T08:55:25.514Z,8.33
2022-08-18T08:57:59.120Z,8.70
2022-08-18T09:00:28.371Z,9.43
2022-08-18T09:03:10.754Z,8.90
2022-08-18T09:05:46.200Z,7.70
2022-08-18T09:08:39.206Z,8.70
2022-08-18T09:11:55.943Z,8.27
2022-08-18T09:14:59.299Z,7.03
2022-08-18T09:17:55.938Z,7.20
2022-08-18T09:20:49.480Z,7.33
2022-08-18T09:23:21.102Z,7.50
2022-08-18T09:25:52.370Z,6.73
2022-08-18T09:28:24.759Z,5.90
2022-08-18T09:31:19.564Z,5.60
2022-08-18T09:34:10.643Z,6.07
2022-08-18T09:36:57.732Z,5.70
2022-08-18T09:39:54.380Z,5.50
2022-08-18T09:45:57.623Z,5.80
2022-08-18T09:48:32.290Z,5.60
2022-08-18T09:51:33.391Z,5.10
2022-08-18T09:54:25.100Z,4.97
2022-08-18T09:57:19.299Z,5.20
2022-08-18T09:59:53.980Z,4.90
2022-08-18T10:03:10.247Z,5.37
2022-08-18T10:05:39.414Z,5.40
2022-08-18T10:08:45.569Z,4.83
2022-08-18T10:11:30.408Z,5.53
2022-08-18T10:14:10.513Z,4.77
2022-08-18T10:17:16.032Z,4.67
2022-08-18T10:19:50.151Z,4.47
2022-08-18T10:22:39.936Z,4.40
2022-08-18T10:25:22.859Z,4.80
2022-08-18T10:27:56.626Z,4.67
2022-08-18T10:31:06.596Z,4.40
2022-08-18T10:36:59.122Z,4.77
2022-08-18T10:39:46.371Z,4.93
2022-08-18T10:42:23.465Z,5.20
2022-08-18T10:45:07.495Z,6.43
2022-08-18T10:47:38.320Z,14.57
2022-08-18T10:50:19.933Z,11.20
2022-08-18T10:53:24.071Z,8.33
2022-08-18T10:59:07.278Z,6.13
2022-08-18T11:02:06.108Z,5.57
2022-08-18T11:04:38.921Z,5.07
2022-08-18T11:07:11.750Z,5.77
2022-08-18T11:13:09.754Z,5.37
2022-08-18T11:15:50.552Z,6.70
2022-08-18T11:18:32.703Z,5.63
2022-08-18T11:21:25.139Z,5.80
2022-08-18T11:27:03.076Z,6.33
2022-08-18T11:29:35.131Z,5.60
2022-08-18T11:32:10.985Z,5.70
2022-08-18T11:34:52.056Z,5.30
2022-08-18T11:37:27.029Z,5.50
2022-08-18T11:39:58.911Z,5.40
2022-08-18T11:42:33.374Z,5.03
2022-08-18T11:45:14.653Z,5.23
2022-08-18T11:48:02.507Z,5.67
2022-08-18T11:50:33.772Z,5.63
2022-08-18T11:53:18.873Z,5.73
2022-08-18T11:56:15.357Z,5.30
2022-08-18T11:58:47.255Z,5.67
2022-08-18T12:04:37.422Z,5.50
2022-08-18T12:07:10.716Z,5.60
2022-08-18T12:12:35.028Z,5.83
2022-08-18T12:15:25.263Z,5.80
2022-08-18T12:17:58.093Z,4.90
2022-08-18T12:20:26.184Z,6.23
2022-08-18T12:22:58.164Z,5.37
2022-08-18T12:25:26.349Z,5.43
2022-08-18T12:27:54.820Z,5.80
2022-08-18T12:30:23.452Z,5.70
2022-08-18T12:33:01.081Z,5.77
2022-08-18T12:35:34.866Z,5.33
2022-08-18T12:38:12.802Z,5.57
2022-08-18T12:40:43.140Z,5.30
2022-08-18T12:43:11.310Z,5.60
2022-08-18T12:45:39.815Z,5.40
2022-08-18T12:48:09.962Z,5.97
2022-08-18T12:50:49.780Z,5.97
2022-08-18T12:53:29.497Z,6.23
2022-08-18T12:56:08.601Z,5.87
2022-08-18T13:01:28.001Z,5.50
2022-08-18T13:04:10.805Z,5.03
2022-08-18T13:07:01.333Z,5.63
2022-08-18T13:09:34.759Z,5.30
2022-08-18T13:12:20.812Z,5.40
2022-08-18T13:14:50.925Z,5.50
2022-08-18T13:17:32.185Z,5.63
2022-08-18T13:20:04.420Z,5.73
2022-08-18T13:22:33.537Z,5.50
2022-08-18T13:25:05.330Z,5.03
2022-08-18T13:27:36.078Z,5.30
2022-08-18T13:30:29.888Z,4.90
2022-08-18T13:32:59.375Z,4.70
2022-08-18T13:35:30.067Z,5.27
2022-08-18T13:38:14.399Z,5.47
2022-08-18T13:40:48.313Z,5.30
2022-08-18T13:43:17.451Z,4.70
2022-08-18T13:45:52.664Z,5.17
2022-08-18T13:48:21.785Z,4.80
2022-08-18T13:50:53.715Z,4.83
2022-08-18T13:53:24.726Z,5.73
2022-08-18T13:55:58.043Z,5.10
2022-08-18T13:58:27.355Z,5.93
2022-08-18T14:01:15.926Z,5.77
2022-08-18T14:03:47.883Z,5.03
2022-08-18T14:06:22.194Z,4.60
2022-08-18T14:08:52.769Z,4.97
2022-08-18T14:11:27.982Z,4.90
2022-08-18T14:14:02.500Z,5.30
2022-08-18T14:16:31.225Z,5.20
2022-08-18T14:19:17.721Z,4.90
2022-08-18T14:22:06.161Z,5.50
2022-08-18T14:24:53.055Z,4.80
2022-08-18T14:27:34.977Z,5.00
2022-08-18T14:30:06.726Z,5.00
2022-08-18T14:32:36.071Z,5.20
2022-08-18T14:35:32.119Z,5.17
2022-08-18T14:37:56.285Z,5.80
2022-08-18T14:40:25.298Z,5.40
2022-08-18T14:42:55.520Z,4.90
2022-08-18T14:45:31.774Z,4.70
2022-08-18T14:48:06.558Z,5.10
2022-08-18T14:50:36.871Z,4.97
2022-08-18T14:53:05.547Z,4.63
2022-08-18T14:55:34.116Z,6.10
2022-08-18T14:58:03.861Z,6.07
2022-08-18T15:00:35.667Z,4.90
2022-08-18T15:03:21.721Z,5.10
2022-08-18T15:05:56.539Z,5.00
2022-08-18T15:08:25.067Z,3.97
2022-08-18T15:10:54.735Z,4.43
2022-08-18T15:13:25.023Z,4.70
2022-08-18T15:15:55.835Z,3.77
2022-08-18T15:18:31.389Z,4.30
2022-08-18T15:21:34.807Z,4.93
2022-08-18T15:24:20.844Z,4.60
2022-08-18T15:26:57.542Z,3.83
2022-08-18T15:29:29.402Z,4.70
2022-08-18T15:32:02.090Z,3.70
2022-08-18T15:34:47.043Z,4.27
2022-08-18T15:37:24.205Z,4.70
2022-08-18T15:40:03.578Z,4.10
2022-08-18T15:42:33.214Z,3.93
2022-08-18T15:45:12.126Z,3.70
2022-08-18T15:47:42.396Z,4.00
2022-08-18T15:50:22.510Z,4.10
2022-08-18T15:52:56.390Z,3.90
2022-08-18T15:55:26.095Z,3.30
2022-08-18T15:57:58.354Z,3.57
2022-08-18T16:00:31.744Z,3.70
2022-08-18T16:03:02.043Z,3.40
2022-08-18T16:05:33.566Z,3.90
2022-08-18T16:08:02.446Z,3.40
2022-08-18T16:10:34.165Z,3.13
2022-08-18T16:13:04.585Z,3.60
2022-08-18T16:15:38.165Z,3.30
2022-08-18T16:18:09.638Z,3.47
2022-08-18T16:20:39.063Z,3.37
2022-08-18T16:23:07.840Z,3.30
2022-08-18T16:25:39.061Z,3.23
2022-08-18T16:28:07.676Z,3.53
2022-08-18T16:30:37.392Z,3.00
2022-08-18T16:33:07.657Z,2.70
2022-08-18T16:35:37.279Z,2.63
2022-08-18T16:38:08.677Z,2.90
2022-08-18T16:40:37.376Z,2.20
2022-08-18T16:43:07.155Z,2.63
2022-08-18T16:45:38.332Z,2.27
2022-08-18T16:48:08.229Z,2.40
2022-08-18T16:50:37.721Z,2.13
2022-08-18T16:53:06.423Z,2.40
2022-08-18T16:55:35.178Z,2.27
2022-08-18T16:58:20.962Z,2.00
2022-08-18T17:01:18.717Z,2.30
2022-08-18T17:04:04.850Z,2.23
2022-08-18T17:06:47.081Z,2.20
2022-08-18T17:09:16.330Z,2.33
2022-08-18T17:11:48.126Z,2.37
2022-08-18T17:14:21.721Z,2.10
2022-08-18T17:16:54.901Z,2.30
2022-08-18T17:19:24.340Z,2.33
2022-08-18T17:21:52.658Z,2.17
2022-08-18T17:24:31.863Z,2.50
2022-08-18T17:27:14.616Z,2.00
2022-08-18T17:30:03.682Z,2.30
2022-08-18T17:32:52.395Z,2.23
2022-08-18T17:35:28.943Z,2.30
2022-08-18T17:38:02.368Z,2.90
2022-08-18T17:40:37.626Z,2.20
2022-08-18T17:43:17.866Z,2.33
2022-08-18T17:45:49.917Z,2.10
2022-08-18T17:48:23.180Z,3.30
2022-08-18T17:51:15.478Z,40.70
2022-08-18T17:53:43.702Z,27.83
2022-08-18T17:56:16.890Z,16.43
2022-08-18T17:58:53.212Z,7.07
2022-08-18T18:01:21.431Z,8.73
2022-08-18T18:03:51.460Z,5.83
2022-08-18T18:06:30.040Z,5.00
2022-08-18T18:09:00.920Z,3.40
2022-08-18T18:11:32.561Z,3.30
2022-08-18T18:14:01.988Z,3.30
2022-08-18T18:16:35.311Z,3.00
2022-08-18T18:19:08.475Z,3.43
2022-08-18T18:22:00.761Z,4.57
2022-08-18T18:24:31.813Z,3.07
2022-08-18T18:27:00.152Z,2.67
2022-08-18T18:29:34.482Z,2.57
2022-08-18T18:32:07.960Z,2.47
2022-08-18T18:34:39.640Z,2.60
2022-08-18T18:37:26.130Z,2.83
2022-08-18T18:40:00.268Z,2.43
2022-08-18T18:42:30.928Z,2.50
2022-08-18T18:45:00.616Z,2.40
2022-08-18T18:47:45.894Z,2.40
2022-08-18T18:50:24.820Z,2.37
2022-08-18T18:53:04.070Z,2.47
2022-08-18T18:55:36.664Z,3.10
2022-08-18T18:58:16.662Z,2.87
2022-08-18T19:00:53.607Z,2.47
2022-08-18T19:03:28.875Z,2.27
2022-08-18T19:06:20.066Z,2.50
2022-08-18T19:09:08.482Z,2.40
2022-08-18T19:11:52.593Z,2.30
2022-08-18T19:14:25.110Z,2.50
2022-08-18T19:16:57.851Z,2.43
2022-08-18T19:19:38.465Z,2.30
2022-08-18T19:22:14.985Z,2.53
2022-08-18T19:24:52.195Z,1.87
2022-08-18T19:27:30.163Z,2.63
2022-08-18T19:30:02.617Z,2.33
2022-08-18T19:32:37.813Z,2.50
2022-08-18T19:35:11.982Z,2.33
2022-08-18T19:38:01.876Z,2.70
2022-08-18T19:40:39.621Z,2.43
2022-08-18T19:43:12.841Z,2.40
2022-08-18T19:45:47.887Z,2.53
2022-08-18T19:48:23.155Z,2.47
2022-08-18T19:50:56.641Z,2.30
2022-08-18T19:53:40.187Z,2.60
2022-08-18T19:56:26.161Z,2.67
2022-08-18T19:59:24.409Z,2.37
2022-08-18T20:02:06.608Z,2.50
2022-08-18T20:04:45.647Z,2.20
2022-08-18T20:07:40.864Z,2.40
2022-08-18T20:10:40.846Z,2.47
2022-08-18T20:13:26.646Z,2.70
2022-08-18T20:16:44.596Z,2.47
2022-08-18T20:19:45.538Z,2.83
2022-08-18T20:22:29.999Z,2.87
2022-08-18T20:25:05.647Z,2.50
2022-08-18T20:27:38.970Z,3.20
2022-08-18T20:30:32.845Z,2.97
2022-08-18T20:33:19.057Z,3.40
2022-08-18T20:36:07.865Z,3.30
2022-08-18T20:38:38.677Z,2.67
2022-08-18T20:41:40.444Z,3.47
2022-08-18T20:44:47.900Z,3.40
2022-08-18T20:47:44.885Z,3.60
2022-08-18T20:50:45.791Z,3.30
2022-08-18T20:53:30.355Z,3.20
2022-08-18T20:56:32.388Z,3.57
2022-08-18T20:59:08.614Z,3.53
2022-08-18T21:01:39.039Z,4.00
2022-08-18T21:04:07.807Z,3.70
2022-08-18T21:06:42.007Z,3.60
2022-08-18T21:09:10.577Z,3.67
2022-08-18T21:11:42.927Z,3.97
2022-08-18T21:14:12.919Z,3.93
2022-08-18T21:16:45.025Z,3.83
2022-08-18T21:19:20.262Z,4.33
2022-08-18T21:21:51.412Z,4.30
2022-08-18T21:24:32.402Z,4.17
2022-08-18T21:27:05.125Z,4.60
2022-08-18T21:29:47.107Z,4.30
2022-08-18T21:32:22.085Z,4.33
2022-08-18T21:34:50.286Z,4.40
2022-08-18T21:37:20.139Z,3.80
2022-08-18T21:39:52.032Z,3.90
2022-08-18T21:42:23.281Z,4.60
2022-08-18T21:44:58.708Z,4.20
2022-08-18T21:47:33.324Z,4.47
2022-08-18T21:50:10.179Z,5.00
2022-08-18T21:52:40.885Z,4.57
2022-08-18T21:55:19.843Z,4.60
2022-08-18T21:58:00.856Z,5.00
2022-08-18T22:00:31.286Z,5.00
2022-08-18T22:03:19.026Z,4.97
2022-08-18T22:05:59.603Z,4.60
2022-08-18T22:08:31.000Z,4.90
2022-08-18T22:12:00.589Z,4.83
2022-08-18T22:14:36.088Z,4.77
2022-08-18T22:17:31.266Z,4.60
2022-08-18T22:20:34.827Z,5.23
2022-08-18T22:23:25.051Z,5.20
2022-08-18T22:25:53.284Z,5.20
2022-08-18T22:28:23.335Z,4.63
2022-08-18T22:30:51.458Z,5.10
2022-08-18T22:33:19.632Z,5.27
2022-08-18T22:35:55.828Z,5.80
2022-08-18T22:38:25.018Z,5.37
2022-08-18T22:40:53.645Z,5.70
2022-08-18T22:43:21.942Z,6.27
2022-08-18T22:45:49.977Z,5.43
2022-08-18T22:48:18.161Z,5.93
2022-08-18T22:50:47.464Z,5.50
2022-08-18T22:53:18.676Z,4.80
2022-08-18T22:55:47.310Z,4.83
2022-08-18T22:58:17.609Z,5.23
2022-08-18T23:00:50.701Z,5.67
2022-08-18T23:03:20.356Z,6.23
2022-08-18T23:05:48.692Z,6.20
2022-08-18T23:08:18.166Z,5.83
2022-08-18T23:10:56.366Z,5.53
2022-08-18T23:13:27.131Z,6.53
2022-08-18T23:16:30.921Z,6.30
2022-08-18T23:18:45.238Z,5.77
2022-08-18T23:21:13.411Z,6.00
2022-08-18T23:24:03.139Z,6.53
2022-08-18T23:26:31.238Z,6.50
2022-08-18T23:28:59.333Z,6.53
2022-08-18T23:31:27.755Z,7.07
2022-08-18T23:33:55.938Z,6.23
2022-08-18T23:36:24.097Z,6.77
2022-08-18T23:38:53.928Z,6.30
2022-08-18T23:41:23.921Z,6.70
2022-08-18T23:43:52.621Z,8.20
2022-08-18T23:46:23.032Z,7.63
2022-08-18T23:48:51.637Z,7.33
2022-08-18T23:51:29.244Z,7.07
2022-08-18T23:53:58.867Z,7.40
2022-08-18T23:56:30.825Z,7.13
2022-08-18T23:58:59.511Z,7.60
